Aviation Digital Data Service (ADDS)

Output produced by METARs form (1801 UTC 19 October 2017)
found at http://www.aviationweather.gov/adds/metars/
 
SOCA 191800Z AUTO 05016KT 9999 SCT033 31/23 Q1010 TEMPO 3000 SHRA FEW014TCU
TAF SOCA 191700Z 1918/2018 09011KT 9999 SCT035 
     PROB30 
     TEMPO 1918/1921 3000 SHRA FEW014TCU 
     FM192100 09005KT CAVOK 
     TEMPO 2007/2010 1200 BR SCT001